Main page
METAR-TAF:

METAR-TAF

Airports :

Termez Airport

Termez, Uzbekistan

latitude: 37-14N, longitude: 067-16E, elevation: 302 m

Current weather observation

The report was made 39 minutes ago, at 03:00 UTC
Wind 6 kt from the West
Temperature 18°C
Humidity 42%
Pressure 1018 hPa
Visibility 10 km or more
no clouds below 1500 m and no cumulonimbus

METAR: UTST 230300Z 26006KT CAVOK 18/05 Q1018 R88/CLRD70 NOSIG

Time: 08:39 (03:39 UTC)

Forecast

The report was made 4 hours and 39 minutes ago, at 23:00 UTC
Forecast valid from 23 at 00 UTC to 23 at 24 UTC
Wind 6 kt from variable directions
Visibility: 6000 m
Temporary
from 23 at 03 UTC to 23 at 14 UTC
Wind 12 kt from the West with gusts up to 22 kt

TAF: UTST 222300Z 2300/2324 VRB06KT 6000 NSC TEMPO 2303/2314 28012G22KT

Weather observations and forecasts of more than 4000 airports (METAR and TAF reports).

The available stations are represented by yellow and red dots on the map.

Hover mouse over dot to see the name of the station.

Then click to see weather observations and forecasts.

To change the map : click on the green buttons with a black cross to zoom in, on the green button with a dash to zoom out, or on the green arrows for adjacent maps.


METAR-TAF: